createdAt,value
2023-04-11T00:02:11.172Z,6.50
2023-04-11T00:05:18.349Z,5.50
2023-04-11T00:08:27.091Z,8.30
2023-04-11T00:11:34.336Z,6.40
2023-04-11T00:14:41.699Z,7.90
2023-04-11T00:17:50.438Z,7.60
2023-04-11T00:20:51.646Z,7.80
2023-04-11T00:23:59.792Z,10.60
2023-04-11T00:27:08.847Z,9.50
2023-04-11T00:30:16.222Z,7.20
2023-04-11T00:33:23.999Z,11.90
2023-04-11T00:36:33.733Z,9.70
2023-04-11T00:39:41.272Z,10.10
2023-04-11T00:42:48.833Z,13.80
2023-04-11T00:45:56.423Z,12.50
2023-04-11T00:49:05.038Z,10.80
2023-04-11T00:52:12.849Z,10.60
2023-04-11T00:55:20.033Z,12.30
2023-04-11T00:58:28.887Z,14.90
2023-04-11T01:01:36.676Z,14.30
2023-04-11T01:04:44.512Z,13.70
2023-04-11T01:07:53.427Z,12.10
2023-04-11T01:11:00.814Z,8.70
2023-04-11T01:14:08.244Z,9.90
2023-04-11T01:17:17.477Z,12.40
2023-04-11T01:20:25.105Z,11.00
2023-04-11T01:23:33.049Z,10.20
2023-04-11T01:26:40.379Z,10.10
2023-04-11T01:29:50.211Z,13.50
2023-04-11T01:32:58.250Z,10.30
2023-04-11T01:36:06.028Z,10.90
2023-04-11T01:39:15.171Z,10.90
2023-04-11T01:42:23.168Z,12.10
2023-04-11T01:45:30.144Z,10.30
2023-04-11T01:48:39.571Z,12.30
2023-04-11T01:51:46.916Z,11.50
2023-04-11T01:54:54.301Z,13.00
2023-04-11T01:58:03.253Z,12.30
2023-04-11T02:01:10.064Z,14.10
2023-04-11T02:04:17.828Z,11.50
2023-04-11T02:07:26.865Z,11.40
2023-04-11T02:10:34.017Z,13.60
2023-04-11T02:13:41.762Z,13.00
2023-04-11T02:16:49.261Z,10.60
2023-04-11T02:19:58.103Z,9.20
2023-04-11T02:23:05.919Z,10.20
2023-04-11T02:26:12.999Z,8.40
2023-04-11T02:29:22.349Z,9.70
2023-04-11T02:32:29.810Z,7.50
2023-04-11T02:35:37.064Z,7.50
2023-04-11T02:38:46.465Z,5.60
2023-04-11T02:41:53.535Z,6.60
2023-04-11T02:45:01.418Z,5.20
2023-04-11T02:48:10.361Z,5.90
2023-04-11T02:51:17.423Z,4.50
2023-04-11T02:54:25.483Z,4.60
2023-04-11T02:57:32.495Z,4.40
2023-04-11T03:00:41.737Z,4.40
2023-04-11T03:03:49.673Z,3.40
2023-04-11T03:06:56.536Z,4.00
2023-04-11T03:10:05.736Z,3.60
2023-04-11T03:13:12.701Z,3.30
2023-04-11T03:16:20.510Z,3.00
2023-04-11T03:19:29.746Z,2.90
2023-04-11T03:22:36.685Z,3.60
2023-04-11T03:25:44.566Z,3.60
2023-04-11T03:28:53.532Z,3.70
2023-04-11T03:32:01.215Z,2.60
2023-04-11T03:35:09.054Z,4.10
2023-04-11T03:38:16.101Z,2.50
2023-04-11T03:41:25.727Z,3.60
2023-04-11T03:44:33.536Z,3.60
2023-04-11T03:47:40.566Z,2.80
2023-04-11T03:50:49.812Z,3.40
2023-04-11T03:53:57.209Z,3.90
2023-04-11T03:57:04.696Z,3.40
2023-04-11T04:00:13.990Z,5.80
2023-04-11T04:03:21.164Z,4.50
2023-04-11T04:06:29.018Z,5.30
2023-04-11T04:09:37.754Z,3.50
2023-04-11T04:12:45.175Z,4.00
2023-04-11T04:15:53.048Z,4.80
2023-04-11T04:19:00.312Z,4.80
2023-04-11T04:22:09.181Z,4.60
2023-04-11T04:25:16.858Z,3.30
2023-04-11T04:28:24.399Z,6.60
2023-04-11T04:31:33.321Z,3.10
2023-04-11T04:34:41.485Z,3.50
2023-04-11T04:37:48.937Z,7.70
2023-04-11T04:40:57.741Z,3.50
2023-04-11T04:44:05.705Z,5.80
2023-04-11T04:47:12.783Z,6.40
2023-04-11T04:50:21.688Z,4.00
2023-04-11T04:53:28.752Z,5.50
2023-04-11T04:56:36.368Z,7.20
2023-04-11T04:59:45.101Z,6.30
2023-04-11T05:02:52.811Z,4.60
2023-04-11T05:06:00.453Z,5.60
2023-04-11T05:09:07.954Z,4.60
2023-04-11T05:12:17.577Z,4.70
2023-04-11T05:15:24.915Z,3.90
2023-04-11T05:18:32.480Z,6.20
2023-04-11T05:21:41.713Z,4.90
2023-04-11T05:24:48.676Z,7.80
2023-04-11T05:27:56.371Z,3.70
2023-04-11T05:31:05.275Z,4.40
2023-04-11T05:34:12.459Z,4.20
2023-04-11T05:37:19.790Z,6.40
2023-04-11T05:40:29.031Z,3.20
2023-04-11T05:43:35.963Z,5.60
2023-04-11T05:46:44.108Z,4.30
2023-04-11T05:49:51.839Z,7.40
2023-04-11T05:53:00.310Z,4.50
2023-04-11T05:56:07.906Z,4.50
2023-04-11T05:59:15.452Z,7.40
2023-04-11T06:02:24.229Z,6.10
2023-04-11T06:05:32.081Z,5.10
2023-04-11T06:08:39.434Z,7.30
2023-04-11T06:11:48.188Z,7.80
2023-04-11T06:14:55.846Z,7.40
2023-04-11T06:18:03.335Z,7.30
2023-04-11T06:21:12.156Z,6.30
2023-04-11T06:24:19.559Z,9.00
2023-04-11T06:27:27.084Z,10.60
2023-04-11T06:30:34.385Z,8.20
2023-04-11T06:33:42.960Z,5.50
2023-04-11T06:36:50.834Z,7.80
2023-04-11T06:39:58.607Z,7.70
2023-04-11T06:43:07.077Z,10.70
2023-04-11T06:46:15.092Z,10.90
2023-04-11T06:49:22.822Z,9.90
2023-04-11T06:52:31.339Z,10.80
2023-04-11T06:55:38.986Z,11.20
2023-04-11T06:58:46.383Z,12.20
2023-04-11T07:01:55.255Z,12.30
2023-04-11T07:05:03.142Z,12.50
2023-04-11T07:08:10.544Z,10.80
2023-04-11T07:11:19.995Z,13.70
2023-04-11T07:14:18.424Z,13.20
2023-04-11T07:17:25.810Z,5.30
2023-04-11T07:20:33.236Z,5.10
2023-04-11T07:23:42.103Z,6.70
2023-04-11T07:26:49.821Z,4.20
2023-04-11T07:29:57.327Z,8.00
2023-04-11T07:33:06.338Z,3.30
2023-04-11T07:36:13.838Z,5.40
2023-04-11T07:39:21.290Z,5.30
2023-04-11T07:42:30.244Z,3.90
2023-04-11T07:45:38.222Z,5.80
2023-04-11T07:48:45.789Z,2.60
2023-04-11T07:51:53.155Z,3.70
2023-04-11T07:55:02.174Z,4.20
2023-04-11T07:58:09.205Z,2.40
2023-04-11T08:01:16.844Z,2.60
2023-04-11T08:04:26.184Z,3.50
2023-04-11T08:07:33.342Z,4.90
2023-04-11T08:10:41.355Z,2.80
2023-04-11T08:13:50.315Z,3.60
2023-04-11T08:16:57.362Z,5.20
2023-04-11T08:20:05.191Z,3.70
2023-04-11T08:23:13.961Z,3.50
2023-04-11T08:26:21.275Z,5.00
2023-04-11T08:29:28.772Z,5.30
2023-04-11T08:32:37.645Z,7.20
2023-04-11T08:35:45.505Z,4.10
2023-04-11T08:38:52.737Z,5.20
2023-04-11T08:42:00.108Z,3.30
2023-04-11T08:45:09.395Z,4.20
2023-04-11T08:48:16.750Z,6.30
2023-04-11T08:51:24.184Z,6.60
2023-04-11T08:54:33.333Z,4.70
2023-04-11T08:57:40.225Z,4.20
2023-04-11T09:00:48.244Z,5.40
2023-04-11T09:03:57.826Z,3.50
2023-04-11T09:07:04.996Z,6.50
2023-04-11T09:10:12.826Z,6.40
2023-04-11T09:13:21.709Z,6.70
2023-04-11T09:16:28.961Z,4.30
2023-04-11T09:19:36.662Z,3.60
2023-04-11T09:22:44.384Z,6.00
2023-04-11T09:25:52.759Z,3.90
2023-04-11T09:29:00.459Z,2.60
2023-04-11T09:32:07.906Z,3.20
2023-04-11T09:35:16.552Z,2.80
2023-04-11T09:38:24.210Z,2.70
2023-04-11T09:41:31.647Z,5.80
2023-04-11T09:44:40.177Z,3.20
2023-04-11T09:47:47.751Z,4.90
2023-04-11T09:50:58.554Z,2.10
2023-04-11T09:53:57.021Z,4.80
2023-04-11T09:57:04.378Z,4.00
2023-04-11T10:00:12.061Z,2.60
2023-04-11T10:03:19.678Z,3.20
2023-04-11T10:06:28.645Z,3.00
2023-04-11T10:09:36.350Z,5.80
2023-04-11T10:12:43.934Z,3.20
2023-04-11T10:15:52.812Z,3.70
2023-04-11T10:19:00.733Z,5.10
2023-04-11T10:22:08.421Z,2.90
2023-04-11T10:25:17.083Z,2.70
2023-04-11T10:28:24.856Z,5.70
2023-04-11T10:31:32.072Z,3.50
2023-04-11T10:34:41.172Z,4.70
2023-04-11T10:37:48.529Z,6.00
2023-04-11T10:40:55.734Z,4.70
2023-04-11T10:44:03.625Z,4.50
2023-04-11T10:47:12.545Z,3.70
2023-04-11T10:50:19.853Z,5.90
2023-04-11T10:53:27.164Z,5.40
2023-04-11T10:56:36.478Z,2.40
2023-04-11T10:59:43.752Z,3.00
2023-04-11T11:02:51.126Z,3.50
2023-04-11T11:06:00.443Z,2.90
2023-04-11T11:09:07.776Z,4.60
2023-04-11T11:12:15.262Z,4.80
2023-04-11T11:15:24.200Z,4.00
2023-04-11T11:18:31.770Z,4.50
2023-04-11T11:21:39.254Z,3.20
2023-04-11T11:24:46.910Z,3.20
2023-04-11T11:27:55.710Z,2.30
2023-04-11T11:31:03.088Z,3.70
2023-04-11T11:37:11.762Z,4.00
2023-04-11T11:40:19.036Z,3.10
2023-04-11T11:43:26.387Z,3.60
2023-04-11T11:46:35.836Z,3.80
2023-04-11T11:49:42.814Z,4.10
2023-04-11T11:52:50.400Z,4.80
2023-04-11T11:55:59.574Z,3.30
2023-04-11T11:59:06.660Z,3.70
2023-04-11T12:02:14.575Z,3.40
2023-04-11T12:05:21.943Z,4.30
2023-04-11T12:08:30.625Z,3.60
2023-04-11T12:11:38.322Z,6.30
2023-04-11T12:14:45.589Z,4.20
2023-04-11T12:17:54.585Z,3.60
2023-04-11T12:21:02.431Z,2.80
2023-04-11T12:24:09.379Z,2.60
2023-04-11T12:27:18.032Z,3.30
2023-04-11T12:30:25.393Z,2.20
2023-04-11T12:33:33.239Z,5.80
2023-04-11T12:36:41.977Z,4.10
2023-04-11T12:39:49.146Z,3.70
2023-04-11T12:42:57.626Z,3.30
2023-04-11T12:46:06.614Z,4.30
2023-04-11T12:49:13.951Z,4.20
2023-04-11T12:52:21.750Z,7.60
2023-04-11T12:55:29.863Z,5.60
2023-04-11T12:58:39.132Z,4.80
2023-04-11T13:01:47.061Z,5.10
2023-04-11T13:04:54.376Z,4.50
2023-04-11T13:08:03.798Z,4.00
2023-04-11T13:11:11.563Z,5.10
2023-04-11T13:14:19.052Z,4.60
2023-04-11T13:17:27.932Z,5.20
2023-04-11T13:20:35.270Z,5.80
2023-04-11T13:23:42.680Z,3.50
2023-04-11T13:26:51.427Z,3.50
2023-04-11T13:29:59.029Z,3.10
2023-04-11T13:33:07.115Z,5.20
2023-04-11T13:36:14.321Z,4.50
2023-04-11T13:39:23.115Z,3.60
2023-04-11T13:42:30.712Z,4.50
2023-04-11T13:45:38.008Z,4.40
2023-04-11T13:48:47.420Z,6.70
2023-04-11T13:51:55.137Z,2.70
2023-04-11T13:55:02.169Z,3.50
2023-04-11T13:58:14.492Z,4.20
2023-04-11T14:01:11.801Z,3.10
2023-04-11T14:04:18.898Z,2.50
2023-04-11T14:07:27.988Z,3.30
2023-04-11T14:10:36.789Z,3.10
2023-04-11T14:13:43.857Z,5.00
2023-04-11T14:16:51.892Z,7.20
2023-04-11T14:20:01.595Z,3.20
2023-04-11T14:23:09.029Z,3.80
2023-04-11T14:26:16.499Z,2.00
2023-04-11T14:29:25.268Z,1.70
2023-04-11T14:32:32.791Z,2.80
2023-04-11T14:35:40.112Z,4.70
2023-04-11T14:38:48.889Z,2.40
2023-04-11T14:41:56.661Z,3.70
2023-04-11T14:45:03.828Z,2.10
2023-04-11T14:48:13.244Z,3.00
2023-04-11T14:51:21.032Z,2.90
2023-04-11T14:54:28.700Z,3.80
2023-04-11T14:57:36.106Z,3.90
2023-04-11T15:00:45.298Z,3.90
2023-04-11T15:03:52.600Z,3.30
2023-04-11T15:07:00.412Z,4.40
2023-04-11T15:10:09.245Z,4.50
2023-04-11T15:13:16.573Z,2.10
2023-04-11T15:16:24.787Z,2.80
2023-04-11T15:19:34.088Z,2.40
2023-04-11T15:22:41.977Z,2.60
2023-04-11T15:25:49.554Z,3.40
2023-04-11T15:28:58.292Z,3.30
2023-04-11T15:32:05.590Z,3.00
2023-04-11T15:35:13.337Z,3.30
2023-04-11T15:38:22.033Z,4.30
2023-04-11T15:41:29.583Z,4.90
2023-04-11T15:44:37.243Z,4.30
2023-04-11T15:47:45.125Z,2.90
2023-04-11T15:50:53.950Z,2.90
2023-04-11T15:54:01.269Z,3.50
2023-04-11T15:57:08.983Z,3.40
2023-04-11T16:00:17.735Z,2.10
2023-04-11T16:03:25.389Z,3.10
2023-04-11T16:06:33.196Z,3.40
2023-04-11T16:09:41.778Z,4.20
2023-04-11T16:12:49.381Z,4.20
2023-04-11T16:15:56.818Z,3.20
2023-04-11T16:19:05.640Z,2.70
2023-04-11T16:22:13.375Z,2.10
2023-04-11T16:25:21.744Z,3.80
2023-04-11T16:28:29.087Z,3.10
2023-04-11T16:31:38.163Z,5.10
2023-04-11T16:34:45.257Z,4.50
2023-04-11T16:37:52.623Z,2.00
2023-04-11T16:41:01.763Z,4.40
2023-04-11T16:44:09.104Z,4.40
2023-04-11T16:47:17.645Z,3.50
2023-04-11T16:50:26.632Z,5.20
2023-04-11T16:53:33.932Z,3.80
2023-04-11T16:56:41.466Z,4.20
2023-04-11T16:59:50.357Z,5.40
2023-04-11T17:02:58.179Z,3.90
2023-04-11T17:06:06.615Z,4.50
2023-04-11T17:09:14.793Z,2.50
2023-04-11T17:12:23.378Z,5.40
2023-04-11T17:15:31.491Z,3.50
2023-04-11T17:18:39.574Z,3.30
2023-04-11T17:21:48.484Z,2.50
2023-04-11T17:24:56.404Z,5.50
2023-04-11T17:28:03.764Z,3.50
2023-04-11T17:31:12.994Z,5.10
2023-04-11T17:34:20.799Z,4.10
2023-04-11T17:37:28.134Z,5.90
2023-04-11T17:40:37.569Z,11.90
2023-04-11T17:43:45.458Z,7.60
2023-04-11T17:46:52.488Z,4.50
2023-04-11T17:50:01.617Z,6.50
2023-04-11T17:53:09.542Z,6.50
2023-04-11T17:56:17.364Z,4.70
2023-04-11T17:59:25.134Z,2.40
2023-04-11T18:02:35.673Z,3.60
2023-04-11T18:05:45.148Z,4.50
2023-04-11T18:08:53.005Z,2.50
2023-04-11T18:12:01.766Z,3.80
2023-04-11T18:15:09.842Z,5.00
2023-04-11T18:18:16.875Z,5.90
2023-04-11T18:21:26.110Z,10.80
2023-04-11T18:24:33.632Z,4.90
2023-04-11T18:27:40.738Z,6.60
2023-04-11T18:30:49.840Z,5.40
2023-04-11T18:33:57.709Z,4.40
2023-04-11T18:37:04.938Z,3.50
2023-04-11T18:40:12.632Z,4.90
2023-04-11T18:43:21.209Z,7.00
2023-04-11T18:46:28.804Z,6.20
2023-04-11T18:49:36.973Z,4.90
2023-04-11T18:52:48.115Z,7.00
2023-04-11T18:55:56.761Z,9.00
2023-04-11T18:59:08.772Z,11.80
2023-04-11T19:02:08.189Z,17.90
2023-04-11T19:05:15.942Z,16.30
2023-04-11T19:08:23.802Z,12.90
2023-04-11T19:11:32.795Z,9.80
2023-04-11T19:14:40.338Z,8.50
2023-04-11T19:17:47.774Z,8.50
2023-04-11T19:20:55.394Z,11.00
2023-04-11T19:24:04.652Z,9.40
2023-04-11T19:27:12.059Z,10.50
2023-04-11T19:30:20.986Z,7.90
2023-04-11T19:33:30.143Z,13.40
2023-04-11T19:36:37.691Z,9.30
2023-04-11T19:39:45.483Z,8.30
2023-04-11T19:42:53.947Z,9.20
2023-04-11T19:46:01.861Z,9.10
2023-04-11T19:49:09.229Z,7.10
2023-04-11T19:52:17.791Z,9.30
2023-04-11T19:55:25.577Z,7.00
2023-04-11T19:58:33.203Z,10.10
2023-04-11T20:01:41.964Z,7.50
2023-04-11T20:04:49.655Z,12.80
2023-04-11T20:07:57.348Z,9.90
2023-04-11T20:11:04.335Z,11.00
2023-04-11T20:14:13.748Z,10.80
2023-04-11T20:17:21.642Z,6.80
2023-04-11T20:20:29.158Z,8.50
2023-04-11T20:23:38.146Z,8.60
2023-04-11T20:26:45.497Z,12.30
2023-04-11T20:29:52.845Z,9.00
2023-04-11T20:33:02.093Z,7.80
2023-04-11T20:36:09.515Z,6.50
2023-04-11T20:39:16.890Z,9.70
2023-04-11T20:42:25.716Z,8.70
2023-04-11T20:45:33.746Z,8.20
2023-04-11T20:48:41.333Z,10.80
2023-04-11T20:51:49.072Z,8.20
2023-04-11T20:54:57.956Z,9.60
2023-04-11T20:58:05.832Z,9.10
2023-04-11T21:01:13.164Z,10.60
2023-04-11T21:04:22.751Z,16.40
2023-04-11T21:07:30.530Z,10.10
2023-04-11T21:10:38.135Z,11.20
2023-04-11T21:13:47.164Z,10.40
2023-04-11T21:16:54.987Z,6.10
2023-04-11T21:20:02.475Z,9.80
2023-04-11T21:23:11.942Z,9.70
2023-04-11T21:26:19.637Z,18.50
2023-04-11T21:29:27.308Z,13.50
2023-04-11T21:32:35.079Z,10.60
2023-04-11T21:35:44.793Z,13.50
2023-04-11T21:38:52.112Z,9.90
2023-04-11T21:42:00.607Z,9.50
2023-04-11T21:45:10.126Z,10.30
2023-04-11T21:48:18.453Z,8.60
2023-04-11T21:51:25.671Z,7.80
2023-04-11T21:54:34.912Z,12.20
2023-04-11T21:57:42.212Z,7.30
2023-04-11T22:00:49.523Z,8.20
2023-04-11T22:03:58.960Z,6.20
2023-04-11T22:07:06.734Z,6.60
2023-04-11T22:10:14.190Z,9.70
2023-04-11T22:13:21.663Z,8.00
2023-04-11T22:16:30.333Z,8.20
2023-04-11T22:19:38.330Z,5.50
2023-04-11T22:22:46.539Z,9.20
2023-04-11T22:25:55.276Z,8.50
2023-04-11T22:29:03.492Z,7.10
2023-04-11T22:32:11.225Z,6.60
2023-04-11T22:35:20.057Z,8.10
2023-04-11T22:38:27.787Z,7.10
2023-04-11T22:41:35.357Z,8.90
2023-04-11T22:44:44.086Z,7.10
2023-04-11T22:47:52.016Z,10.60
2023-04-11T22:50:59.777Z,7.40
2023-04-11T22:54:08.176Z,7.80
2023-04-11T22:57:15.871Z,8.20
2023-04-11T23:00:23.413Z,6.30
2023-04-11T23:03:31.330Z,12.00
2023-04-11T23:06:39.819Z,8.30
2023-04-11T23:09:47.562Z,5.70
2023-04-11T23:12:55.033Z,8.00
2023-04-11T23:16:03.660Z,8.70
2023-04-11T23:19:11.551Z,9.40
2023-04-11T23:22:18.981Z,8.90
2023-04-11T23:25:27.535Z,5.80
2023-04-11T23:28:35.461Z,6.60
2023-04-11T23:31:43.187Z,7.80
2023-04-11T23:34:52.768Z,5.80
2023-04-11T23:38:00.407Z,9.80
2023-04-11T23:41:07.848Z,9.60
2023-04-11T23:44:15.189Z,7.80
2023-04-11T23:47:24.419Z,8.50
2023-04-11T23:50:31.851Z,7.50
2023-04-11T23:53:39.361Z,8.30
2023-04-11T23:56:48.292Z,6.10
2023-04-11T23:59:56.082Z,7.10
